sensor_id;sensor_type;location;lat;lon;timestamp;temperature;humidity
18384;DHT22;9318;48.644;9.456;2023-07-24T00:01:34;17.90;99.90
18384;DHT22;9318;48.644;9.456;2023-07-24T00:04:00;17.80;99.90
18384;DHT22;9318;48.644;9.456;2023-07-24T00:06:27;17.80;99.90
18384;DHT22;9318;48.644;9.456;2023-07-24T00:08:54;17.80;99.90
18384;DHT22;9318;48.644;9.456;2023-07-24T00:11:22;17.80;99.90
18384;DHT22;9318;48.644;9.456;2023-07-24T00:13:49;17.80;99.90
18384;DHT22;9318;48.644;9.456;2023-07-24T00:16:15;17.70;99.90
18384;DHT22;9318;48.644;9.456;2023-07-24T00:18:42;17.60;99.90
18384;DHT22;9318;48.644;9.456;2023-07-24T00:21:09;17.60;99.90
18384;DHT22;9318;48.644;9.456;2023-07-24T00:23:36;17.60;99.90
18384;DHT22;9318;48.644;9.456;2023-07-24T00:26:02;17.60;99.90
18384;DHT22;9318;48.644;9.456;2023-07-24T00:28:31;17.60;99.90
18384;DHT22;9318;48.644;9.456;2023-07-24T00:30:57;17.70;99.90
18384;DHT22;9318;48.644;9.456;2023-07-24T00:33:24;17.70;99.90
18384;DHT22;9318;48.644;9.456;2023-07-24T00:35:55;17.70;99.90
18384;DHT22;9318;48.644;9.456;2023-07-24T00:38:22;17.70;99.90
18384;DHT22;9318;48.644;9.456;2023-07-24T00:40:48;17.70;99.90
18384;DHT22;9318;48.644;9.456;2023-07-24T00:43:15;17.70;99.90
18384;DHT22;9318;48.644;9.456;2023-07-24T00:45:44;17.70;99.90
18384;DHT22;9318;48.644;9.456;2023-07-24T00:48:11;17.70;99.90
18384;DHT22;9318;48.644;9.456;2023-07-24T00:50:39;17.60;99.90
18384;DHT22;9318;48.644;9.456;2023-07-24T00:53:07;17.50;99.90
18384;DHT22;9318;48.644;9.456;2023-07-24T00:55:35;17.40;99.90
18384;DHT22;9318;48.644;9.456;2023-07-24T00:58:02;17.40;99.90
18384;DHT22;9318;48.644;9.456;2023-07-24T01:00:29;17.40;99.90
18384;DHT22;9318;48.644;9.456;2023-07-24T01:02:59;17.40;99.90
18384;DHT22;9318;48.644;9.456;2023-07-24T01:05:26;17.40;99.90
18384;DHT22;9318;48.644;9.456;2023-07-24T01:07:53;17.40;99.90
18384;DHT22;9318;48.644;9.456;2023-07-24T01:10:19;17.50;99.90
18384;DHT22;9318;48.644;9.456;2023-07-24T01:12:51;17.50;99.90
18384;DHT22;9318;48.644;9.456;2023-07-24T01:15:24;17.50;99.90
18384;DHT22;9318;48.644;9.456;2023-07-24T01:17:57;17.50;99.90
18384;DHT22;9318;48.644;9.456;2023-07-24T01:20:28;17.40;99.90
18384;DHT22;9318;48.644;9.456;2023-07-24T01:23:13;17.40;99.90
18384;DHT22;9318;48.644;9.456;2023-07-24T01:25:53;17.50;99.90
18384;DHT22;9318;48.644;9.456;2023-07-24T01:28:20;17.50;99.90
18384;DHT22;9318;48.644;9.456;2023-07-24T01:30:47;17.50;99.90
18384;DHT22;9318;48.644;9.456;2023-07-24T01:33:13;17.50;99.90
18384;DHT22;9318;48.644;9.456;2023-07-24T01:35:41;17.50;99.90
18384;DHT22;9318;48.644;9.456;2023-07-24T01:38:09;17.50;99.90
18384;DHT22;9318;48.644;9.456;2023-07-24T01:40:36;17.50;99.90
18384;DHT22;9318;48.644;9.456;2023-07-24T01:43:04;17.50;99.90
18384;DHT22;9318;48.644;9.456;2023-07-24T01:45:31;17.40;99.90
18384;DHT22;9318;48.644;9.456;2023-07-24T01:47:58;17.50;99.90
18384;DHT22;9318;48.644;9.456;2023-07-24T01:50:25;17.40;99.90
18384;DHT22;9318;48.644;9.456;2023-07-24T01:52:52;17.30;99.90
18384;DHT22;9318;48.644;9.456;2023-07-24T01:55:19;17.20;99.90
18384;DHT22;9318;48.644;9.456;2023-07-24T01:57:45;17.20;99.90
18384;DHT22;9318;48.644;9.456;2023-07-24T02:00:14;17.10;99.90
18384;DHT22;9318;48.644;9.456;2023-07-24T02:02:41;17.10;99.90
18384;DHT22;9318;48.644;9.456;2023-07-24T02:05:08;17.00;99.90
18384;DHT22;9318;48.644;9.456;2023-07-24T02:07:35;17.00;99.90
18384;DHT22;9318;48.644;9.456;2023-07-24T02:10:02;17.00;99.90
18384;DHT22;9318;48.644;9.456;2023-07-24T02:12:28;16.90;99.90
18384;DHT22;9318;48.644;9.456;2023-07-24T02:14:55;16.80;99.90
18384;DHT22;9318;48.644;9.456;2023-07-24T02:17:24;16.80;99.90
18384;DHT22;9318;48.644;9.456;2023-07-24T02:19:51;16.70;99.90
18384;DHT22;9318;48.644;9.456;2023-07-24T02:22:17;16.70;99.90
18384;DHT22;9318;48.644;9.456;2023-07-24T02:24:44;16.80;99.90
18384;DHT22;9318;48.644;9.456;2023-07-24T02:27:12;16.90;99.90
18384;DHT22;9318;48.644;9.456;2023-07-24T02:29:39;16.90;99.90
18384;DHT22;9318;48.644;9.456;2023-07-24T02:32:06;17.00;99.90
18384;DHT22;9318;48.644;9.456;2023-07-24T02:34:35;17.00;99.90
18384;DHT22;9318;48.644;9.456;2023-07-24T02:37:01;17.10;99.90
18384;DHT22;9318;48.644;9.456;2023-07-24T02:39:28;17.20;99.90
18384;DHT22;9318;48.644;9.456;2023-07-24T02:41:55;17.10;99.90
18384;DHT22;9318;48.644;9.456;2023-07-24T02:44:21;17.00;99.90
18384;DHT22;9318;48.644;9.456;2023-07-24T02:46:48;17.00;99.90
18384;DHT22;9318;48.644;9.456;2023-07-24T02:49:15;16.90;99.90
18384;DHT22;9318;48.644;9.456;2023-07-24T02:51:43;16.80;99.90
18384;DHT22;9318;48.644;9.456;2023-07-24T02:54:10;16.80;99.90
18384;DHT22;9318;48.644;9.456;2023-07-24T02:56:36;16.70;99.90
18384;DHT22;9318;48.644;9.456;2023-07-24T02:59:04;16.70;99.90
18384;DHT22;9318;48.644;9.456;2023-07-24T03:01:31;16.70;99.90
18384;DHT22;9318;48.644;9.456;2023-07-24T03:03:58;16.60;99.90
18384;DHT22;9318;48.644;9.456;2023-07-24T03:06:25;16.60;99.90
18384;DHT22;9318;48.644;9.456;2023-07-24T03:08:53;16.50;99.90
18384;DHT22;9318;48.644;9.456;2023-07-24T03:11:20;16.40;99.90
18384;DHT22;9318;48.644;9.456;2023-07-24T03:13:47;16.40;99.90
18384;DHT22;9318;48.644;9.456;2023-07-24T03:16:13;16.40;99.90
18384;DHT22;9318;48.644;9.456;2023-07-24T03:18:42;16.40;99.90
18384;DHT22;9318;48.644;9.456;2023-07-24T03:21:09;16.40;99.90
18384;DHT22;9318;48.644;9.456;2023-07-24T03:23:36;16.30;99.90
18384;DHT22;9318;48.644;9.456;2023-07-24T03:26:04;16.20;99.90
18384;DHT22;9318;48.644;9.456;2023-07-24T03:28:31;16.20;99.90
18384;DHT22;9318;48.644;9.456;2023-07-24T03:30:58;16.10;99.90
18384;DHT22;9318;48.644;9.456;2023-07-24T03:33:24;16.20;99.90
18384;DHT22;9318;48.644;9.456;2023-07-24T03:35:51;16.20;99.90
18384;DHT22;9318;48.644;9.456;2023-07-24T03:38:18;16.20;99.90
18384;DHT22;9318;48.644;9.456;2023-07-24T03:40:44;16.20;99.90
18384;DHT22;9318;48.644;9.456;2023-07-24T03:43:14;16.20;99.90
18384;DHT22;9318;48.644;9.456;2023-07-24T03:45:41;16.20;99.90
18384;DHT22;9318;48.644;9.456;2023-07-24T03:48:07;16.20;99.90
18384;DHT22;9318;48.644;9.456;2023-07-24T03:50:34;16.20;99.90
18384;DHT22;9318;48.644;9.456;2023-07-24T03:53:01;16.20;99.90
18384;DHT22;9318;48.644;9.456;2023-07-24T03:55:27;16.20;99.90
18384;DHT22;9318;48.644;9.456;2023-07-24T03:57:54;16.10;99.90
18384;DHT22;9318;48.644;9.456;2023-07-24T04:00:22;16.10;99.90
18384;DHT22;9318;48.644;9.456;2023-07-24T04:02:49;16.10;99.90
18384;DHT22;9318;48.644;9.456;2023-07-24T04:05:16;16.10;99.90
18384;DHT22;9318;48.644;9.456;2023-07-24T04:07:43;16.00;99.90
18384;DHT22;9318;48.644;9.456;2023-07-24T04:10:11;16.10;99.90
18384;DHT22;9318;48.644;9.456;2023-07-24T04:12:37;16.10;99.90
18384;DHT22;9318;48.644;9.456;2023-07-24T04:15:05;16.10;99.90
18384;DHT22;9318;48.644;9.456;2023-07-24T04:17:34;16.20;99.90
18384;DHT22;9318;48.644;9.456;2023-07-24T04:20:01;16.30;99.90
18384;DHT22;9318;48.644;9.456;2023-07-24T04:22:28;16.30;99.90
18384;DHT22;9318;48.644;9.456;2023-07-24T04:24:55;16.40;99.90
18384;DHT22;9318;48.644;9.456;2023-07-24T04:27:22;16.40;99.90
18384;DHT22;9318;48.644;9.456;2023-07-24T04:29:48;16.40;99.90
18384;DHT22;9318;48.644;9.456;2023-07-24T04:32:15;16.40;99.90
18384;DHT22;9318;48.644;9.456;2023-07-24T04:34:43;16.50;99.90
18384;DHT22;9318;48.644;9.456;2023-07-24T04:37:10;16.60;99.90
18384;DHT22;9318;48.644;9.456;2023-07-24T04:39:38;16.70;99.90
18384;DHT22;9318;48.644;9.456;2023-07-24T04:42:05;16.80;99.90
18384;DHT22;9318;48.644;9.456;2023-07-24T04:44:32;16.90;99.90
18384;DHT22;9318;48.644;9.456;2023-07-24T04:46:59;16.90;99.90
18384;DHT22;9318;48.644;9.456;2023-07-24T04:49:28;16.90;99.90
18384;DHT22;9318;48.644;9.456;2023-07-24T04:51:56;17.00;99.90
18384;DHT22;9318;48.644;9.456;2023-07-24T04:54:23;17.00;99.90
18384;DHT22;9318;48.644;9.456;2023-07-24T04:56:50;17.00;99.90
18384;DHT22;9318;48.644;9.456;2023-07-24T04:59:17;17.00;99.90
18384;DHT22;9318;48.644;9.456;2023-07-24T05:01:43;17.10;99.90
18384;DHT22;9318;48.644;9.456;2023-07-24T05:04:10;17.10;99.90
18384;DHT22;9318;48.644;9.456;2023-07-24T05:06:37;17.10;99.90
18384;DHT22;9318;48.644;9.456;2023-07-24T05:09:05;17.20;99.90
18384;DHT22;9318;48.644;9.456;2023-07-24T05:11:32;17.30;99.90
18384;DHT22;9318;48.644;9.456;2023-07-24T05:13:58;17.40;99.90
18384;DHT22;9318;48.644;9.456;2023-07-24T05:16:25;17.50;99.90
18384;DHT22;9318;48.644;9.456;2023-07-24T05:18:53;17.70;99.90
18384;DHT22;9318;48.644;9.456;2023-07-24T05:21:20;17.80;99.90
18384;DHT22;9318;48.644;9.456;2023-07-24T05:23:46;18.00;99.90
18384;DHT22;9318;48.644;9.456;2023-07-24T05:26:15;18.10;99.90
18384;DHT22;9318;48.644;9.456;2023-07-24T05:28:41;18.40;99.90
18384;DHT22;9318;48.644;9.456;2023-07-24T05:31:08;18.60;99.90
18384;DHT22;9318;48.644;9.456;2023-07-24T05:33:35;18.90;99.90
18384;DHT22;9318;48.644;9.456;2023-07-24T05:36:03;19.20;99.90
18384;DHT22;9318;48.644;9.456;2023-07-24T05:38:30;19.40;99.90
18384;DHT22;9318;48.644;9.456;2023-07-24T05:40:57;19.60;99.90
18384;DHT22;9318;48.644;9.456;2023-07-24T05:43:26;19.70;99.90
18384;DHT22;9318;48.644;9.456;2023-07-24T05:45:53;19.80;99.90
18384;DHT22;9318;48.644;9.456;2023-07-24T05:48:21;19.70;99.90
18384;DHT22;9318;48.644;9.456;2023-07-24T05:50:48;19.60;99.90
18384;DHT22;9318;48.644;9.456;2023-07-24T05:53:15;19.60;99.90
18384;DHT22;9318;48.644;9.456;2023-07-24T05:55:42;19.50;99.90
18384;DHT22;9318;48.644;9.456;2023-07-24T05:58:09;19.30;99.90
18384;DHT22;9318;48.644;9.456;2023-07-24T06:00:38;19.30;99.90
18384;DHT22;9318;48.644;9.456;2023-07-24T06:03:05;19.30;99.90
18384;DHT22;9318;48.644;9.456;2023-07-24T06:05:31;19.20;99.90
18384;DHT22;9318;48.644;9.456;2023-07-24T06:07:58;19.10;99.90
18384;DHT22;9318;48.644;9.456;2023-07-24T06:10:25;19.10;99.90
18384;DHT22;9318;48.644;9.456;2023-07-24T06:12:51;19.00;99.90
18384;DHT22;9318;48.644;9.456;2023-07-24T06:15:18;19.00;99.90
18384;DHT22;9318;48.644;9.456;2023-07-24T06:17:46;18.90;99.90
18384;DHT22;9318;48.644;9.456;2023-07-24T06:20:13;18.90;99.90
18384;DHT22;9318;48.644;9.456;2023-07-24T06:22:39;18.90;99.90
18384;DHT22;9318;48.644;9.456;2023-07-24T06:25:07;18.80;99.90
18384;DHT22;9318;48.644;9.456;2023-07-24T06:27:34;18.80;99.90
18384;DHT22;9318;48.644;9.456;2023-07-24T06:30:00;18.80;99.90
18384;DHT22;9318;48.644;9.456;2023-07-24T06:32:27;18.80;99.90
18384;DHT22;9318;48.644;9.456;2023-07-24T06:34:56;18.90;99.90
18384;DHT22;9318;48.644;9.456;2023-07-24T06:37:22;18.90;99.90
18384;DHT22;9318;48.644;9.456;2023-07-24T06:39:49;18.90;99.90
18384;DHT22;9318;48.644;9.456;2023-07-24T06:42:15;18.90;99.90
18384;DHT22;9318;48.644;9.456;2023-07-24T06:44:42;18.90;99.90
18384;DHT22;9318;48.644;9.456;2023-07-24T06:47:09;18.90;99.90
18384;DHT22;9318;48.644;9.456;2023-07-24T06:49:36;19.00;99.90
18384;DHT22;9318;48.644;9.456;2023-07-24T06:52:04;19.10;99.90
18384;DHT22;9318;48.644;9.456;2023-07-24T06:54:31;19.20;99.90
18384;DHT22;9318;48.644;9.456;2023-07-24T06:56:58;19.40;99.90
18384;DHT22;9318;48.644;9.456;2023-07-24T06:59:24;19.50;99.90
18384;DHT22;9318;48.644;9.456;2023-07-24T07:01:51;19.60;99.90
18384;DHT22;9318;48.644;9.456;2023-07-24T07:04:18;19.70;99.90
18384;DHT22;9318;48.644;9.456;2023-07-24T07:06:45;19.80;99.90
18384;DHT22;9318;48.644;9.456;2023-07-24T07:09:13;19.90;99.90
18384;DHT22;9318;48.644;9.456;2023-07-24T07:11:39;20.00;99.90
18384;DHT22;9318;48.644;9.456;2023-07-24T07:14:08;20.00;99.90
18384;DHT22;9318;48.644;9.456;2023-07-24T07:16:35;20.10;99.90
18384;DHT22;9318;48.644;9.456;2023-07-24T07:19:02;20.10;99.90
18384;DHT22;9318;48.644;9.456;2023-07-24T07:21:29;20.10;99.90
18384;DHT22;9318;48.644;9.456;2023-07-24T07:23:55;20.10;99.90
18384;DHT22;9318;48.644;9.456;2023-07-24T07:26:23;20.10;99.90
18384;DHT22;9318;48.644;9.456;2023-07-24T07:28:50;20.20;99.90
18384;DHT22;9318;48.644;9.456;2023-07-24T07:31:17;20.20;99.90
18384;DHT22;9318;48.644;9.456;2023-07-24T07:33:44;20.30;99.90
18384;DHT22;9318;48.644;9.456;2023-07-24T07:36:10;20.50;99.90
18384;DHT22;9318;48.644;9.456;2023-07-24T07:38:37;20.70;99.90
18384;DHT22;9318;48.644;9.456;2023-07-24T07:41:05;21.00;99.90
18384;DHT22;9318;48.644;9.456;2023-07-24T07:43:33;21.30;99.90
18384;DHT22;9318;48.644;9.456;2023-07-24T07:46:01;21.50;99.90
18384;DHT22;9318;48.644;9.456;2023-07-24T07:48:28;21.70;99.90
18384;DHT22;9318;48.644;9.456;2023-07-24T07:50:55;21.80;99.90
18384;DHT22;9318;48.644;9.456;2023-07-24T07:53:22;21.90;99.90
18384;DHT22;9318;48.644;9.456;2023-07-24T07:55:55;22.00;99.90
18384;DHT22;9318;48.644;9.456;2023-07-24T07:58:22;22.10;99.90
18384;DHT22;9318;48.644;9.456;2023-07-24T08:00:50;22.20;99.90
18384;DHT22;9318;48.644;9.456;2023-07-24T08:03:17;22.30;99.90
18384;DHT22;9318;48.644;9.456;2023-07-24T08:05:44;22.50;99.90
18384;DHT22;9318;48.644;9.456;2023-07-24T08:08:10;22.60;99.90
18384;DHT22;9318;48.644;9.456;2023-07-24T08:10:37;22.70;99.90
18384;DHT22;9318;48.644;9.456;2023-07-24T08:13:04;22.60;99.90
18384;DHT22;9318;48.644;9.456;2023-07-24T08:15:34;22.60;99.90
18384;DHT22;9318;48.644;9.456;2023-07-24T08:18:03;22.40;99.90
18384;DHT22;9318;48.644;9.456;2023-07-24T08:20:30;22.30;99.90
18384;DHT22;9318;48.644;9.456;2023-07-24T08:22:56;22.20;99.90
18384;DHT22;9318;48.644;9.456;2023-07-24T08:25:23;22.10;99.90
18384;DHT22;9318;48.644;9.456;2023-07-24T08:27:50;21.90;99.90
18384;DHT22;9318;48.644;9.456;2023-07-24T08:30:17;21.80;99.90
18384;DHT22;9318;48.644;9.456;2023-07-24T08:32:44;21.80;99.90
18384;DHT22;9318;48.644;9.456;2023-07-24T08:35:12;21.60;99.90
18384;DHT22;9318;48.644;9.456;2023-07-24T08:37:42;21.60;99.90
18384;DHT22;9318;48.644;9.456;2023-07-24T08:40:10;21.40;99.90
18384;DHT22;9318;48.644;9.456;2023-07-24T08:42:38;21.30;99.90
18384;DHT22;9318;48.644;9.456;2023-07-24T08:45:10;21.20;99.90
18384;DHT22;9318;48.644;9.456;2023-07-24T08:47:38;21.10;99.90
18384;DHT22;9318;48.644;9.456;2023-07-24T08:50:07;21.00;99.90
18384;DHT22;9318;48.644;9.456;2023-07-24T08:52:38;21.00;99.90
18384;DHT22;9318;48.644;9.456;2023-07-24T08:55:05;20.90;99.90
18384;DHT22;9318;48.644;9.456;2023-07-24T08:57:32;20.90;99.90
18384;DHT22;9318;48.644;9.456;2023-07-24T08:59:59;20.90;99.90
18384;DHT22;9318;48.644;9.456;2023-07-24T09:02:30;20.90;99.90
18384;DHT22;9318;48.644;9.456;2023-07-24T09:04:57;21.00;99.90
18384;DHT22;9318;48.644;9.456;2023-07-24T09:07:23;21.00;99.90
18384;DHT22;9318;48.644;9.456;2023-07-24T09:09:51;21.10;99.90
18384;DHT22;9318;48.644;9.456;2023-07-24T09:12:18;21.20;99.90
18384;DHT22;9318;48.644;9.456;2023-07-24T09:14:45;21.20;99.90
18384;DHT22;9318;48.644;9.456;2023-07-24T09:17:12;21.30;99.90
18384;DHT22;9318;48.644;9.456;2023-07-24T09:19:39;21.40;99.90
18384;DHT22;9318;48.644;9.456;2023-07-24T09:22:13;21.50;99.90
18384;DHT22;9318;48.644;9.456;2023-07-24T09:24:49;21.70;99.90
18384;DHT22;9318;48.644;9.456;2023-07-24T09:27:18;21.80;99.90
18384;DHT22;9318;48.644;9.456;2023-07-24T09:29:45;21.90;99.90
18384;DHT22;9318;48.644;9.456;2023-07-24T09:32:19;22.00;99.90
18384;DHT22;9318;48.644;9.456;2023-07-24T09:34:46;22.10;99.90
18384;DHT22;9318;48.644;9.456;2023-07-24T09:37:23;22.30;99.90
18384;DHT22;9318;48.644;9.456;2023-07-24T09:39:50;22.70;99.90
18384;DHT22;9318;48.644;9.456;2023-07-24T09:42:18;23.00;99.90
18384;DHT22;9318;48.644;9.456;2023-07-24T09:44:44;23.10;99.90
18384;DHT22;9318;48.644;9.456;2023-07-24T09:47:11;23.10;99.90
18384;DHT22;9318;48.644;9.456;2023-07-24T09:49:38;23.10;99.90
18384;DHT22;9318;48.644;9.456;2023-07-24T09:52:09;23.10;99.90
18384;DHT22;9318;48.644;9.456;2023-07-24T09:54:41;22.90;99.90
18384;DHT22;9318;48.644;9.456;2023-07-24T09:57:13;22.80;99.90
18384;DHT22;9318;48.644;9.456;2023-07-24T09:59:42;22.50;99.90
18384;DHT22;9318;48.644;9.456;2023-07-24T10:02:10;22.30;99.90
18384;DHT22;9318;48.644;9.456;2023-07-24T10:04:38;22.20;99.90
18384;DHT22;9318;48.644;9.456;2023-07-24T10:07:06;22.10;99.90
18384;DHT22;9318;48.644;9.456;2023-07-24T10:09:33;21.90;99.90
18384;DHT22;9318;48.644;9.456;2023-07-24T10:12:00;21.80;99.90
18384;DHT22;9318;48.644;9.456;2023-07-24T10:14:28;21.70;99.90
18384;DHT22;9318;48.644;9.456;2023-07-24T10:16:57;21.70;99.90
18384;DHT22;9318;48.644;9.456;2023-07-24T10:19:24;21.60;99.90
18384;DHT22;9318;48.644;9.456;2023-07-24T10:21:51;21.60;99.90
18384;DHT22;9318;48.644;9.456;2023-07-24T10:24:18;21.50;99.90
18384;DHT22;9318;48.644;9.456;2023-07-24T10:26:49;21.40;99.90
18384;DHT22;9318;48.644;9.456;2023-07-24T10:29:18;21.40;99.90
18384;DHT22;9318;48.644;9.456;2023-07-24T10:31:52;21.30;99.90
18384;DHT22;9318;48.644;9.456;2023-07-24T10:34:21;21.20;99.90
18384;DHT22;9318;48.644;9.456;2023-07-24T10:36:47;21.10;99.90
18384;DHT22;9318;48.644;9.456;2023-07-24T10:39:15;21.10;99.90
18384;DHT22;9318;48.644;9.456;2023-07-24T10:41:44;21.00;99.90
18384;DHT22;9318;48.644;9.456;2023-07-24T10:44:11;21.00;99.90
18384;DHT22;9318;48.644;9.456;2023-07-24T10:46:39;20.90;99.90
18384;DHT22;9318;48.644;9.456;2023-07-24T10:49:07;20.80;99.90
18384;DHT22;9318;48.644;9.456;2023-07-24T10:51:35;20.80;99.90
18384;DHT22;9318;48.644;9.456;2023-07-24T10:54:03;20.80;99.90
18384;DHT22;9318;48.644;9.456;2023-07-24T10:56:30;20.70;99.90
18384;DHT22;9318;48.644;9.456;2023-07-24T10:59:02;20.60;99.90
18384;DHT22;9318;48.644;9.456;2023-07-24T11:01:30;20.50;99.90
18384;DHT22;9318;48.644;9.456;2023-07-24T11:03:58;20.50;99.90
18384;DHT22;9318;48.644;9.456;2023-07-24T11:06:25;20.40;99.90
18384;DHT22;9318;48.644;9.456;2023-07-24T11:08:53;20.40;99.90
18384;DHT22;9318;48.644;9.456;2023-07-24T11:11:21;20.40;99.90
18384;DHT22;9318;48.644;9.456;2023-07-24T11:13:49;20.40;99.90
18384;DHT22;9318;48.644;9.456;2023-07-24T11:16:15;20.40;99.90
18384;DHT22;9318;48.644;9.456;2023-07-24T11:18:46;20.30;99.90
18384;DHT22;9318;48.644;9.456;2023-07-24T11:21:13;20.30;99.90
18384;DHT22;9318;48.644;9.456;2023-07-24T11:23:45;20.20;99.90
18384;DHT22;9318;48.644;9.456;2023-07-24T11:26:14;20.20;99.90
18384;DHT22;9318;48.644;9.456;2023-07-24T11:28:40;20.10;99.90
18384;DHT22;9318;48.644;9.456;2023-07-24T11:31:07;20.10;99.90
18384;DHT22;9318;48.644;9.456;2023-07-24T11:33:34;20.10;99.90
18384;DHT22;9318;48.644;9.456;2023-07-24T11:36:01;20.00;99.90
18384;DHT22;9318;48.644;9.456;2023-07-24T11:38:28;20.00;99.90
18384;DHT22;9318;48.644;9.456;2023-07-24T11:40:55;20.00;99.90
18384;DHT22;9318;48.644;9.456;2023-07-24T11:43:24;20.00;99.90
18384;DHT22;9318;48.644;9.456;2023-07-24T11:45:52;19.90;99.90
18384;DHT22;9318;48.644;9.456;2023-07-24T11:48:20;20.00;99.90
18384;DHT22;9318;48.644;9.456;2023-07-24T11:50:48;20.00;99.90
18384;DHT22;9318;48.644;9.456;2023-07-24T11:53:20;20.20;99.90
18384;DHT22;9318;48.644;9.456;2023-07-24T11:55:48;20.40;99.90
18384;DHT22;9318;48.644;9.456;2023-07-24T11:58:15;20.70;99.90
18384;DHT22;9318;48.644;9.456;2023-07-24T12:00:45;21.00;99.90
18384;DHT22;9318;48.644;9.456;2023-07-24T12:03:13;21.40;99.90
18384;DHT22;9318;48.644;9.456;2023-07-24T12:05:40;21.50;99.90
18384;DHT22;9318;48.644;9.456;2023-07-24T12:08:08;21.60;99.90
18384;DHT22;9318;48.644;9.456;2023-07-24T12:10:37;21.70;99.90
18384;DHT22;9318;48.644;9.456;2023-07-24T12:13:04;21.60;99.90
18384;DHT22;9318;48.644;9.456;2023-07-24T12:15:31;21.60;99.90
18384;DHT22;9318;48.644;9.456;2023-07-24T12:18:01;21.50;99.90
18384;DHT22;9318;48.644;9.456;2023-07-24T12:20:28;21.30;99.90
18384;DHT22;9318;48.644;9.456;2023-07-24T12:22:55;21.20;99.90
18384;DHT22;9318;48.644;9.456;2023-07-24T12:25:22;21.10;99.90
18384;DHT22;9318;48.644;9.456;2023-07-24T12:27:49;21.00;99.90
18384;DHT22;9318;48.644;9.456;2023-07-24T12:30:15;21.00;99.90
18384;DHT22;9318;48.644;9.456;2023-07-24T12:32:42;21.10;99.90
18384;DHT22;9318;48.644;9.456;2023-07-24T12:35:10;21.10;99.90
18384;DHT22;9318;48.644;9.456;2023-07-24T12:37:37;21.20;99.90
18384;DHT22;9318;48.644;9.456;2023-07-24T12:40:06;21.30;99.90
18384;DHT22;9318;48.644;9.456;2023-07-24T12:42:33;21.40;99.90
18384;DHT22;9318;48.644;9.456;2023-07-24T12:45:00;21.60;99.90
18384;DHT22;9318;48.644;9.456;2023-07-24T12:47:28;21.80;99.90
18384;DHT22;9318;48.644;9.456;2023-07-24T12:49:55;22.00;99.90
18384;DHT22;9318;48.644;9.456;2023-07-24T12:52:24;22.00;99.90
18384;DHT22;9318;48.644;9.456;2023-07-24T12:54:51;22.10;99.90
18384;DHT22;9318;48.644;9.456;2023-07-24T12:57:17;22.20;99.90
18384;DHT22;9318;48.644;9.456;2023-07-24T12:59:44;22.20;99.90
18384;DHT22;9318;48.644;9.456;2023-07-24T13:02:11;22.30;99.90
18384;DHT22;9318;48.644;9.456;2023-07-24T13:04:38;22.40;99.90
18384;DHT22;9318;48.644;9.456;2023-07-24T13:07:05;22.60;99.90
18384;DHT22;9318;48.644;9.456;2023-07-24T13:09:33;22.70;99.90
18384;DHT22;9318;48.644;9.456;2023-07-24T13:12:00;22.80;99.90
18384;DHT22;9318;48.644;9.456;2023-07-24T13:14:26;22.90;99.90
18384;DHT22;9318;48.644;9.456;2023-07-24T13:16:53;22.80;99.90
18384;DHT22;9318;48.644;9.456;2023-07-24T13:19:20;22.90;99.90
18384;DHT22;9318;48.644;9.456;2023-07-24T13:21:47;22.90;99.90
18384;DHT22;9318;48.644;9.456;2023-07-24T13:24:13;22.90;99.90
18384;DHT22;9318;48.644;9.456;2023-07-24T13:26:41;22.80;99.90
18384;DHT22;9318;48.644;9.456;2023-07-24T13:29:09;22.80;99.90
18384;DHT22;9318;48.644;9.456;2023-07-24T13:31:36;22.70;99.90
18384;DHT22;9318;48.644;9.456;2023-07-24T13:34:02;22.90;99.90
18384;DHT22;9318;48.644;9.456;2023-07-24T13:36:29;22.90;99.90
18384;DHT22;9318;48.644;9.456;2023-07-24T13:38:56;23.10;99.90
18384;DHT22;9318;48.644;9.456;2023-07-24T13:41:23;23.20;99.90
18384;DHT22;9318;48.644;9.456;2023-07-24T13:43:51;23.40;99.90
18384;DHT22;9318;48.644;9.456;2023-07-24T13:46:17;23.40;99.90
18384;DHT22;9318;48.644;9.456;2023-07-24T13:48:44;23.50;99.90
18384;DHT22;9318;48.644;9.456;2023-07-24T13:51:11;23.50;99.90
18384;DHT22;9318;48.644;9.456;2023-07-24T13:53:38;23.50;99.90
18384;DHT22;9318;48.644;9.456;2023-07-24T13:56:05;23.70;99.90
18384;DHT22;9318;48.644;9.456;2023-07-24T13:58:32;23.70;99.90
18384;DHT22;9318;48.644;9.456;2023-07-24T14:01:00;23.80;99.90
18384;DHT22;9318;48.644;9.456;2023-07-24T14:03:27;23.80;99.90
18384;DHT22;9318;48.644;9.456;2023-07-24T14:05:55;23.70;99.90
18384;DHT22;9318;48.644;9.456;2023-07-24T14:08:22;23.60;99.90
18384;DHT22;9318;48.644;9.456;2023-07-24T14:10:49;23.70;99.90
18384;DHT22;9318;48.644;9.456;2023-07-24T14:13:15;23.90;99.90
18384;DHT22;9318;48.644;9.456;2023-07-24T14:15:42;24.00;99.90
18384;DHT22;9318;48.644;9.456;2023-07-24T14:18:10;24.00;99.90
18384;DHT22;9318;48.644;9.456;2023-07-24T14:20:37;24.00;99.90
18384;DHT22;9318;48.644;9.456;2023-07-24T14:23:05;24.20;99.90
18384;DHT22;9318;48.644;9.456;2023-07-24T14:25:32;24.30;99.90
18384;DHT22;9318;48.644;9.456;2023-07-24T14:27:59;24.10;99.90
18384;DHT22;9318;48.644;9.456;2023-07-24T14:30:26;24.00;99.90
18384;DHT22;9318;48.644;9.456;2023-07-24T14:32:52;23.80;99.90
18384;DHT22;9318;48.644;9.456;2023-07-24T14:35:21;23.80;99.90
18384;DHT22;9318;48.644;9.456;2023-07-24T14:37:47;23.80;99.90
18384;DHT22;9318;48.644;9.456;2023-07-24T14:40:14;23.70;99.90
18384;DHT22;9318;48.644;9.456;2023-07-24T14:42:41;23.70;99.90
18384;DHT22;9318;48.644;9.456;2023-07-24T14:45:08;23.60;99.90
18384;DHT22;9318;48.644;9.456;2023-07-24T14:47:35;23.60;99.90
18384;DHT22;9318;48.644;9.456;2023-07-24T14:50:02;23.50;99.90
18384;DHT22;9318;48.644;9.456;2023-07-24T14:52:30;23.60;99.90
18384;DHT22;9318;48.644;9.456;2023-07-24T14:54:57;23.60;99.90
18384;DHT22;9318;48.644;9.456;2023-07-24T14:57:24;23.70;99.90
18384;DHT22;9318;48.644;9.456;2023-07-24T14:59:51;23.60;99.90
18384;DHT22;9318;48.644;9.456;2023-07-24T15:02:17;23.60;99.90
18384;DHT22;9318;48.644;9.456;2023-07-24T15:04:44;23.50;99.90
18384;DHT22;9318;48.644;9.456;2023-07-24T15:07:11;23.40;99.90
18384;DHT22;9318;48.644;9.456;2023-07-24T15:09:39;23.40;99.90
18384;DHT22;9318;48.644;9.456;2023-07-24T15:12:06;23.30;99.90
18384;DHT22;9318;48.644;9.456;2023-07-24T15:14:33;23.30;99.90
18384;DHT22;9318;48.644;9.456;2023-07-24T15:16:59;23.30;99.90
18384;DHT22;9318;48.644;9.456;2023-07-24T15:19:26;23.20;99.90
18384;DHT22;9318;48.644;9.456;2023-07-24T15:21:53;23.20;99.90
18384;DHT22;9318;48.644;9.456;2023-07-24T15:24:19;23.30;99.90
18384;DHT22;9318;48.644;9.456;2023-07-24T15:26:47;23.20;99.90
18384;DHT22;9318;48.644;9.456;2023-07-24T15:29:14;23.20;99.90
18384;DHT22;9318;48.644;9.456;2023-07-24T15:31:42;23.10;99.90
18384;DHT22;9318;48.644;9.456;2023-07-24T15:34:08;23.10;99.90
18384;DHT22;9318;48.644;9.456;2023-07-24T15:36:35;23.10;99.90
18384;DHT22;9318;48.644;9.456;2023-07-24T15:39:03;22.90;99.90
18384;DHT22;9318;48.644;9.456;2023-07-24T15:41:30;22.80;99.90
18384;DHT22;9318;48.644;9.456;2023-07-24T15:43:58;22.50;99.90
18384;DHT22;9318;48.644;9.456;2023-07-24T15:46:25;22.30;99.90